Time;durP1;ratioP1;P1;durP2;ratioP2;P2;SDS_P1;SDS_P2;PMS_P1;PMS_P2;Temp;Humidity;BMP_temperature;BMP_pressure;BME280_temperature;BME280_humidity;BME280_pressure;Samples;Min_cycle;Max_cycle;Signal;HPM_P1;HPM_P2
2022/05/22 00:00:08;;;;;;;6.28;3.78;;;15.80;92.60;;;;;;5108160;28;20024;-83
2022/05/22 00:02:34;;;;;;;5.55;3.28;;;15.90;92.60;;;;;;5097088;28;20465;-82
2022/05/22 00:05:00;;;;;;;6.22;2.80;;;15.90;92.70;;;;;;5093414;28;20020;-82
2022/05/22 00:07:25;;;;;;;5.18;3.45;;;15.80;92.70;;;;;;5107415;28;20066;-82
2022/05/22 00:09:51;;;;;;;6.60;3.53;;;15.80;92.80;;;;;;5106032;28;20032;-85
2022/05/22 00:12:16;;;;;;;5.88;3.55;;;15.70;92.90;;;;;;5104110;28;20030;-82
2022/05/22 00:14:43;;;;;;;5.82;3.10;;;15.80;92.90;;;;;;5106458;28;20030;-81
2022/05/22 00:17:09;;;;;;;5.78;3.13;;;15.70;92.90;;;;;;5109578;28;20271;-82
2022/05/22 00:19:36;;;;;;;6.57;3.95;;;15.70;93.00;;;;;;5110458;28;20070;-82
2022/05/22 00:22:02;;;;;;;5.78;3.00;;;15.70;93.00;;;;;;5108538;28;20114;-82
2022/05/22 00:24:32;;;;;;;4.65;3.03;;;15.80;93.20;;;;;;5114497;27;20103;-84
2022/05/22 00:27:00;;;;;;;5.30;3.13;;;15.70;93.10;;;;;;5107073;27;20038;-82
2022/05/22 00:29:26;;;;;;;7.55;3.65;;;15.80;93.30;;;;;;5099186;28;20111;-82
2022/05/22 00:31:51;;;;;;;9.30;4.13;;;15.70;93.20;;;;;;5112963;28;20123;-83
2022/05/22 00:34:17;;;;;;;4.63;3.28;;;15.70;93.30;;;;;;5114772;28;20063;-83
2022/05/22 00:36:43;;;;;;;8.10;3.78;;;15.60;93.30;;;;;;5107456;28;20042;-83
2022/05/22 00:39:09;;;;;;;7.47;3.13;;;15.60;93.40;;;;;;5101195;28;20036;-82
2022/05/22 00:41:35;;;;;;;4.25;2.92;;;15.50;93.50;;;;;;5108672;28;20106;-83
2022/05/22 00:44:03;;;;;;;6.18;3.10;;;15.50;93.50;;;;;;5094596;28;20060;-85
2022/05/22 00:46:30;;;;;;;6.15;3.42;;;15.50;93.60;;;;;;5107522;28;20767;-83
2022/05/22 00:49:09;;;;;;;9.65;3.58;;;15.50;93.50;;;;;;5107086;28;20023;-82
2022/05/22 00:51:35;;;;;;;7.22;3.03;;;15.40;93.50;;;;;;5112378;28;20031;-82
2022/05/22 00:54:14;;;;;;;4.78;3.38;;;15.50;93.60;;;;;;5102709;28;20107;-85
2022/05/22 00:56:47;;;;;;;9.65;3.83;;;15.40;93.70;;;;;;5094198;28;20547;-83
2022/05/22 00:59:19;;;;;;;8.90;3.60;;;15.40;93.70;;;;;;5092677;28;20077;-84
2022/05/22 01:01:46;;;;;;;4.40;2.83;;;15.30;93.70;;;;;;5102506;28;20027;-83
2022/05/22 01:04:19;;;;;;;7.28;3.85;;;15.30;93.80;;;;;;5105715;28;20035;-83
2022/05/22 01:06:45;;;;;;;10.27;3.50;;;15.30;93.90;;;;;;5109474;28;20100;-84
2022/05/22 01:09:11;;;;;;;7.53;3.42;;;15.30;93.90;;;;;;5107471;28;20053;-83
2022/05/22 01:11:37;;;;;;;8.60;4.03;;;15.30;94.00;;;;;;5112745;28;20035;-82
2022/05/22 01:14:14;;;;;;;6.15;3.45;;;15.30;94.00;;;;;;5112361;28;20389;-82
2022/05/22 01:16:39;;;;;;;7.03;3.42;;;15.20;94.30;;;;;;5105977;27;20035;-82
2022/05/22 01:19:15;;;;;;;5.57;3.72;;;15.20;94.10;;;;;;5107694;28;20117;-84
2022/05/22 01:21:53;;;;;;;6.60;3.67;;;15.20;94.20;;;;;;5112969;28;20038;-83
2022/05/22 01:24:19;;;;;;;6.55;3.45;;;15.20;94.40;;;;;;5112668;28;20057;-83
2022/05/22 01:26:46;;;;;;;5.35;3.38;;;15.10;94.50;;;;;;5112599;28;20040;-83
2022/05/22 01:29:11;;;;;;;7.53;4.03;;;15.10;94.60;;;;;;5104537;28;20028;-83
2022/05/22 01:31:37;;;;;;;7.15;3.60;;;15.00;94.70;;;;;;5103999;28;20099;-83
2022/05/22 01:34:02;;;;;;;3.92;3.05;;;15.00;94.80;;;;;;5101668;28;20030;-83
2022/05/22 01:36:28;;;;;;;9.35;4.20;;;15.00;94.80;;;;;;5103398;28;20067;-82
2022/05/22 01:38:53;;;;;;;6.88;3.88;;;15.00;94.90;;;;;;5113141;28;20036;-85
2022/05/22 01:41:19;;;;;;;8.27;4.20;;;14.90;95.00;;;;;;5109985;28;20540;-86
2022/05/22 01:43:44;;;;;;;6.57;3.80;;;14.90;95.10;;;;;;5112855;28;20023;-82
2022/05/22 01:46:10;;;;;;;10.93;3.88;;;14.80;95.20;;;;;;5109792;28;20397;-82
2022/05/22 01:48:35;;;;;;;7.10;4.25;;;14.80;95.30;;;;;;5106464;28;20024;-83
2022/05/22 01:51:01;;;;;;;7.50;3.38;;;14.70;95.40;;;;;;5111037;28;20499;-82
2022/05/22 01:53:26;;;;;;;6.97;4.07;;;14.70;95.50;;;;;;5109737;28;20062;-82
2022/05/22 01:55:52;;;;;;;6.57;3.85;;;14.60;95.60;;;;;;5099520;28;20035;-82
2022/05/22 01:58:18;;;;;;;7.28;3.95;;;14.60;95.70;;;;;;5108035;28;20022;-84
2022/05/22 02:00:44;;;;;;;6.30;3.92;;;14.50;95.80;;;;;;5101606;28;20027;-85
2022/05/22 02:03:10;;;;;;;8.10;4.07;;;14.50;95.90;;;;;;5107961;27;20028;-84
2022/05/22 02:05:36;;;;;;;9.40;4.18;;;14.50;96.10;;;;;;5112085;27;20088;-83
2022/05/22 02:08:22;;;;;;;7.90;4.18;;;14.40;96.10;;;;;;5106093;28;20023;-83
2022/05/22 02:10:54;;;;;;;4.95;3.58;;;14.40;96.30;;;;;;5110662;28;20529;-83
2022/05/22 02:13:22;;;;;;;6.30;4.45;;;14.40;96.30;;;;;;5110849;28;20031;-83
2022/05/22 02:15:49;;;;;;;6.60;4.00;;;14.40;96.40;;;;;;5100752;28;20038;-83
2022/05/22 02:18:14;;;;;;;6.82;4.20;;;14.30;96.40;;;;;;5107361;28;20046;-83
2022/05/22 02:20:40;;;;;;;8.55;4.63;;;14.30;96.50;;;;;;5110064;28;20473;-83
2022/05/22 02:23:05;;;;;;;5.85;3.58;;;14.30;96.50;;;;;;5110349;28;20116;-83
2022/05/22 02:25:33;;;;;;;4.82;3.30;;;14.30;96.50;;;;;;5104747;28;20032;-83
2022/05/22 02:28:00;;;;;;;10.90;4.88;;;14.20;96.50;;;;;;5105955;28;20028;-83
2022/05/22 02:30:30;;;;;;;7.10;4.28;;;14.20;96.60;;;;;;5100416;28;20460;-83
2022/05/22 02:32:55;;;;;;;7.88;4.70;;;14.20;96.70;;;;;;5109263;28;20050;-82
2022/05/22 02:35:21;;;;;;;7.28;4.43;;;14.20;96.80;;;;;;5111684;28;20047;-83
2022/05/22 02:37:52;;;;;;;9.73;4.32;;;14.10;96.90;;;;;;5113515;28;20426;-85
2022/05/22 02:40:20;;;;;;;9.00;4.45;;;14.10;97.10;;;;;;5112765;28;20106;-82
2022/05/22 02:42:48;;;;;;;10.35;3.85;;;14.10;97.10;;;;;;5108012;28;20031;-83
2022/05/22 02:45:16;;;;;;;8.88;4.60;;;14.10;97.20;;;;;;5106483;28;20114;-83
2022/05/22 02:47:41;;;;;;;7.63;4.75;;;14.10;97.10;;;;;;5105304;28;20088;-83
2022/05/22 02:50:09;;;;;;;5.38;4.22;;;14.10;97.30;;;;;;5115193;28;20055;-82
2022/05/22 02:52:35;;;;;;;5.95;4.57;;;14.10;97.20;;;;;;5108724;28;20386;-82
2022/05/22 02:55:01;;;;;;;8.88;5.07;;;14.00;97.30;;;;;;5105930;28;20042;-85
2022/05/22 02:57:27;;;;;;;12.13;5.80;;;14.00;97.40;;;;;;5092630;28;20170;-83
2022/05/22 02:59:54;;;;;;;10.68;6.03;;;13.90;97.50;;;;;;5107917;28;20498;-82
2022/05/22 03:02:20;;;;;;;9.60;5.30;;;13.90;97.60;;;;;;5111065;28;20024;-81
2022/05/22 03:04:47;;;;;;;6.68;5.10;;;13.90;97.60;;;;;;5111181;28;20027;-83
2022/05/22 03:07:15;;;;;;;7.60;5.63;;;13.90;97.70;;;;;;5102832;27;20039;-82
2022/05/22 03:09:42;;;;;;;7.78;5.28;;;13.90;97.70;;;;;;5096795;28;20024;-82
2022/05/22 03:12:11;;;;;;;10.35;5.30;;;13.90;97.70;;;;;;5098455;28;20023;-82
2022/05/22 03:14:37;;;;;;;10.23;5.63;;;13.90;97.80;;;;;;5109485;28;20062;-84
2022/05/22 03:17:03;;;;;;;9.27;5.30;;;13.80;97.80;;;;;;5110650;28;20104;-82
2022/05/22 03:19:28;;;;;;;11.48;5.72;;;13.80;97.80;;;;;;5109266;28;20024;-85
2022/05/22 03:21:54;;;;;;;8.35;5.30;;;13.80;97.80;;;;;;5099063;28;20024;-85
2022/05/22 03:24:19;;;;;;;9.23;5.45;;;13.80;97.80;;;;;;5109929;28;20422;-83
2022/05/22 03:26:45;;;;;;;9.23;6.25;;;13.80;97.80;;;;;;5109636;28;20431;-82
2022/05/22 03:29:11;;;;;;;7.90;5.82;;;13.80;97.80;;;;;;5108854;28;20051;-82
2022/05/22 03:31:37;;;;;;;10.30;5.88;;;13.80;97.80;;;;;;5107814;28;20024;-83
2022/05/22 03:34:03;;;;;;;7.70;5.93;;;13.80;97.80;;;;;;5106095;28;20663;-83
2022/05/22 03:36:29;;;;;;;6.50;5.50;;;13.80;97.90;;;;;;5093649;28;20039;-83
2022/05/22 03:38:55;;;;;;;7.72;4.78;;;13.80;98.00;;;;;;5096321;28;20122;-83
2022/05/22 03:41:20;;;;;;;10.30;5.40;;;13.80;98.00;;;;;;5108837;28;20362;-83
2022/05/22 03:43:46;;;;;;;10.25;5.38;;;13.80;98.10;;;;;;5108161;28;20028;-83
2022/05/22 03:46:12;;;;;;;8.68;5.20;;;13.80;98.10;;;;;;5107763;28;20074;-84
2022/05/22 03:48:38;;;;;;;9.10;5.20;;;13.80;98.10;;;;;;5108508;28;20097;-83
2022/05/22 03:51:03;;;;;;;11.57;5.55;;;13.80;98.20;;;;;;5107837;28;20106;-82
2022/05/22 03:53:29;;;;;;;13.43;5.20;;;13.80;98.30;;;;;;5105591;28;20101;-84
2022/05/22 03:55:54;;;;;;;7.43;5.25;;;13.80;98.30;;;;;;5100424;28;20089;-84
2022/05/22 03:58:20;;;;;;;9.07;5.00;;;13.80;98.30;;;;;;5094215;28;20220;-86
2022/05/22 04:00:45;;;;;;;7.72;5.68;;;13.80;98.20;;;;;;5105876;28;20024;-83
2022/05/22 04:03:11;;;;;;;8.38;5.95;;;13.80;98.20;;;;;;5102012;28;20023;-82
2022/05/22 04:05:37;;;;;;;9.68;5.35;;;13.90;98.20;;;;;;5109779;28;20493;-83
2022/05/22 04:08:02;;;;;;;8.85;5.30;;;13.90;98.10;;;;;;5105856;28;20023;-85
2022/05/22 04:10:28;;;;;;;7.10;4.60;;;13.80;98.20;;;;;;5099957;28;20039;-82
2022/05/22 04:12:53;;;;;;;6.55;4.75;;;13.90;98.10;;;;;;5106208;28;20228;-84
2022/05/22 04:15:21;;;;;;;10.68;5.28;;;13.80;98.20;;;;;;5098979;28;20043;-82
2022/05/22 04:17:47;;;;;;;8.73;4.95;;;13.80;98.20;;;;;;5096040;28;20129;-83
2022/05/22 04:20:15;;;;;;;6.38;4.65;;;13.80;98.30;;;;;;5090108;28;20028;-83
2022/05/22 04:25:26;;;;;;;7.03;4.53;;;13.80;98.30;;;;;;5104192;28;20042;-83
2022/05/22 04:27:51;;;;;;;7.93;4.75;;;13.80;98.30;;;;;;5095012;28;20122;-81
2022/05/22 04:30:18;;;;;;;13.18;4.43;;;13.80;98.30;;;;;;5107978;28;20114;-82
2022/05/22 04:32:48;;;;;;;7.85;5.05;;;13.80;98.20;;;;;;5105148;28;20032;-83
2022/05/22 04:35:15;;;;;;;9.10;4.10;;;13.80;98.30;;;;;;5108868;28;20035;-84
2022/05/22 04:37:40;;;;;;;5.95;3.70;;;13.80;98.30;;;;;;5103307;28;20127;-81
2022/05/22 04:40:07;;;;;;;6.55;4.43;;;13.80;98.30;;;;;;5095465;28;20161;-83
2022/05/22 04:42:34;;;;;;;8.88;4.43;;;13.90;98.10;;;;;;5107375;28;20028;-83
2022/05/22 04:45:00;;;;;;;9.73;4.50;;;13.90;98.00;;;;;;5099513;28;20024;-82
2022/05/22 04:47:26;;;;;;;10.07;4.47;;;13.90;97.90;;;;;;5108976;28;20050;-84
2022/05/22 04:49:51;;;;;;;6.28;4.07;;;14.00;97.90;;;;;;5109297;28;20027;-85
2022/05/22 04:52:17;;;;;;;7.40;4.00;;;14.00;97.80;;;;;;5109540;28;20044;-82
2022/05/22 04:54:42;;;;;;;7.55;4.60;;;14.10;97.80;;;;;;5107937;28;20027;-85
2022/05/22 04:57:08;;;;;;;7.53;3.92;;;14.10;97.70;;;;;;5104020;28;20560;-82
2022/05/22 04:59:34;;;;;;;7.75;3.53;;;14.10;97.60;;;;;;5094734;28;20047;-84
2022/05/22 05:02:01;;;;;;;5.25;3.55;;;14.10;97.40;;;;;;5112477;28;20110;-85
2022/05/22 05:04:26;;;;;;;9.35;2.85;;;14.20;97.40;;;;;;5101320;28;20521;-82
2022/05/22 05:06:52;;;;;;;3.38;2.65;;;14.20;97.30;;;;;;5108527;28;20196;-82
2022/05/22 05:09:18;;;;;;;8.48;2.88;;;14.20;97.30;;;;;;5105903;28;20495;-82
2022/05/22 05:11:44;;;;;;;5.60;3.00;;;14.20;97.00;;;;;;5106725;28;20080;-83
2022/05/22 05:14:09;;;;;;;6.57;2.97;;;14.20;97.00;;;;;;5112558;28;20051;-83
2022/05/22 05:16:35;;;;;;;5.35;2.85;;;14.20;97.00;;;;;;5112953;28;20038;-84
2022/05/22 05:19:01;;;;;;;6.00;3.10;;;14.30;96.90;;;;;;5113012;28;20032;-83
2022/05/22 05:21:27;;;;;;;9.88;2.55;;;14.30;96.80;;;;;;5108547;27;20115;-82
2022/05/22 05:23:53;;;;;;;4.30;2.22;;;14.40;96.60;;;;;;5107443;28;20159;-82
2022/05/22 05:26:18;;;;;;;4.07;2.42;;;14.40;96.60;;;;;;5111306;28;20047;-82
2022/05/22 05:28:44;;;;;;;4.45;2.25;;;14.40;96.00;;;;;;5112768;28;20072;-84
2022/05/22 05:31:09;;;;;;;7.30;3.58;;;14.40;96.20;;;;;;5109515;28;20028;-82
2022/05/22 05:33:35;;;;;;;7.88;2.75;;;14.40;96.20;;;;;;5095924;28;20028;-83
2022/05/22 05:36:02;;;;;;;4.40;2.78;;;14.40;96.20;;;;;;5103503;27;20061;-84
2022/05/22 05:38:27;;;;;;;4.63;2.03;;;14.50;96.40;;;;;;5097874;27;20063;-83
2022/05/22 05:40:53;;;;;;;4.93;1.92;;;14.60;96.00;;;;;;5096316;28;20056;-83
2022/05/22 05:43:19;;;;;;;7.00;2.28;;;14.60;95.80;;;;;;5095831;28;20032;-83
2022/05/22 05:45:45;;;;;;;5.35;2.22;;;14.60;95.90;;;;;;5101061;28;20024;-84
2022/05/22 05:48:10;;;;;;;4.68;2.22;;;14.70;95.80;;;;;;5105309;27;20474;-83
2022/05/22 05:50:36;;;;;;;6.82;2.00;;;14.70;95.80;;;;;;5101068;28;20533;-83
2022/05/22 05:53:02;;;;;;;5.32;1.65;;;14.80;95.70;;;;;;5104313;28;20016;-83
2022/05/22 05:55:29;;;;;;;3.45;1.80;;;14.90;95.10;;;;;;5099783;28;20044;-83
2022/05/22 05:57:56;;;;;;;3.55;1.23;;;14.90;95.00;;;;;;5107915;28;20034;-84
2022/05/22 06:00:23;;;;;;;11.05;2.15;;;15.00;94.80;;;;;;5112170;27;20032;-84
2022/05/22 06:02:49;;;;;;;2.58;1.15;;;15.00;94.30;;;;;;5097276;28;20030;-84
2022/05/22 06:05:15;;;;;;;2.05;1.10;;;15.10;94.00;;;;;;5103548;27;20454;-83
2022/05/22 06:07:41;;;;;;;4.93;1.60;;;15.10;93.80;;;;;;5104242;28;20082;-85
2022/05/22 06:10:08;;;;;;;4.90;1.52;;;15.20;94.00;;;;;;5096522;28;20500;-84
2022/05/22 06:12:34;;;;;;;11.15;1.83;;;15.30;94.00;;;;;;5105855;28;20036;-83
2022/05/22 06:15:00;;;;;;;4.15;1.50;;;15.30;93.90;;;;;;5105933;28;20488;-82
2022/05/22 06:17:37;;;;;;;6.07;1.60;;;15.40;93.90;;;;;;5096827;28;20047;-83
2022/05/22 06:20:07;;;;;;;2.88;1.40;;;15.50;94.00;;;;;;5096276;28;20035;-83
2022/05/22 06:22:34;;;;;;;6.38;1.73;;;15.60;93.90;;;;;;5104165;28;20481;-82
2022/05/22 06:25:09;;;;;;;4.82;1.50;;;15.60;94.20;;;;;;5097683;28;20077;-82
2022/05/22 06:27:34;;;;;;;6.55;1.80;;;15.60;94.10;;;;;;5102182;28;20638;-82
2022/05/22 06:30:00;;;;;;;3.45;1.15;;;15.80;93.80;;;;;;5101965;28;20080;-85
2022/05/22 06:32:27;;;;;;;4.75;2.08;;;15.80;93.10;;;;;;5112613;27;20031;-85
2022/05/22 06:34:52;;;;;;;3.15;0.90;;;15.90;92.90;;;;;;5103165;28;20030;-84
2022/05/22 06:37:21;;;;;;;5.93;1.60;;;15.90;92.50;;;;;;5095640;28;20044;-82
2022/05/22 06:39:50;;;;;;;4.35;1.38;;;15.90;92.60;;;;;;5105455;28;20331;-85
2022/05/22 06:42:26;;;;;;;6.90;1.60;;;15.90;92.30;;;;;;5098508;28;20027;-84
2022/05/22 06:45:03;;;;;;;5.90;1.50;;;16.10;92.40;;;;;;5097019;28;20403;-84
2022/05/22 06:47:31;;;;;;;3.63;1.30;;;16.20;92.30;;;;;;5097186;28;20036;-85
2022/05/22 06:50:03;;;;;;;3.70;1.27;;;16.20;92.30;;;;;;5100239;28;20039;-86
2022/05/22 06:52:30;;;;;;;3.33;1.10;;;16.30;92.30;;;;;;5102026;28;20712;-84
2022/05/22 06:54:55;;;;;;;5.18;1.20;;;16.40;92.10;;;;;;5105275;28;20039;-84
2022/05/22 06:57:21;;;;;;;7.30;1.50;;;16.50;91.90;;;;;;5092971;28;20131;-85
2022/05/22 06:59:48;;;;;;;4.32;0.90;;;16.50;91.10;;;;;;5100102;28;20631;-84
2022/05/22 07:02:15;;;;;;;5.10;1.42;;;16.60;91.30;;;;;;5093416;28;20023;-85
2022/05/22 07:04:40;;;;;;;4.40;1.08;;;16.80;90.90;;;;;;5108318;28;20028;-84
2022/05/22 07:07:06;;;;;;;3.55;1.05;;;16.90;90.60;;;;;;5103329;28;20040;-83
2022/05/22 07:09:32;;;;;;;4.22;1.52;;;17.00;90.30;;;;;;5105231;28;20524;-85
2022/05/22 07:11:59;;;;;;;4.47;1.00;;;17.00;90.60;;;;;;5108624;28;20110;-85
2022/05/22 07:14:27;;;;;;;4.97;1.08;;;17.20;90.40;;;;;;5104280;28;20480;-84
2022/05/22 07:16:53;;;;;;;4.57;0.98;;;17.30;90.40;;;;;;5102451;28;20028;-85
2022/05/22 07:19:19;;;;;;;3.50;1.00;;;17.40;90.50;;;;;;5107582;28;20404;-84
2022/05/22 07:21:46;;;;;;;3.53;1.17;;;17.50;88.40;;;;;;5104674;28;20107;-84
2022/05/22 07:24:12;;;;;;;5.20;1.42;;;17.60;88.30;;;;;;5101245;27;20027;-84
2022/05/22 07:26:38;;;;;;;7.35;1.13;;;17.70;88.90;;;;;;5096103;28;20389;-85
2022/05/22 07:29:03;;;;;;;3.53;0.90;;;17.80;88.60;;;;;;5110010;28;20024;-85
2022/05/22 07:31:29;;;;;;;2.72;0.77;;;18.00;88.10;;;;;;5101201;28;20035;-84
2022/05/22 07:33:57;;;;;;;5.35;1.20;;;18.10;87.00;;;;;;5094629;28;20373;-84
2022/05/22 07:36:23;;;;;;;2.42;0.90;;;18.10;86.20;;;;;;5107044;28;20038;-84
2022/05/22 07:38:48;;;;;;;3.85;1.23;;;18.30;87.50;;;;;;5106310;28;20024;-85
2022/05/22 07:41:14;;;;;;;2.88;1.02;;;18.20;85.70;;;;;;5097864;28;20054;-84
2022/05/22 07:43:41;;;;;;;4.53;1.33;;;18.10;86.60;;;;;;5108551;28;20020;-84
2022/05/22 07:46:08;;;;;;;6.78;1.50;;;18.10;86.50;;;;;;5109045;28;20068;-83
2022/05/22 07:48:34;;;;;;;4.97;1.08;;;18.20;86.30;;;;;;5109148;28;20497;-85
2022/05/22 07:51:02;;;;;;;5.80;2.17;;;18.40;87.10;;;;;;5102278;28;20032;-84
2022/05/22 07:53:28;;;;;;;6.03;1.00;;;18.60;86.30;;;;;;5102100;28;20027;-85
2022/05/22 07:55:54;;;;;;;1.92;0.80;;;18.80;85.70;;;;;;5102696;28;20420;-83
2022/05/22 07:58:21;;;;;;;4.28;1.17;;;18.90;84.00;;;;;;5102341;28;20030;-83
2022/05/22 08:00:49;;;;;;;5.97;1.17;;;19.00;84.10;;;;;;5102257;28;20107;-84
2022/05/22 08:03:16;;;;;;;6.13;0.93;;;19.00;84.50;;;;;;5103558;28;20100;-83
2022/05/22 08:05:42;;;;;;;3.97;1.10;;;19.00;84.60;;;;;;5096688;28;20493;-84
2022/05/22 08:08:08;;;;;;;4.25;1.10;;;19.20;85.50;;;;;;5095031;28;20107;-82
2022/05/22 08:10:36;;;;;;;3.80;1.45;;;19.30;82.90;;;;;;5085944;28;20516;-83
2022/05/22 08:13:03;;;;;;;6.78;1.38;;;19.40;84.50;;;;;;5042227;28;20053;-84
2022/05/22 08:15:30;;;;;;;4.55;1.65;;;19.40;83.90;;;;;;5035341;28;20033;-82
2022/05/22 08:17:56;;;;;;;2.85;0.95;;;19.50;83.50;;;;;;5039136;28;20026;-83
2022/05/22 08:20:22;;;;;;;4.57;1.00;;;19.70;81.50;;;;;;5041079;28;20033;-82
2022/05/22 08:22:54;;;;;;;3.17;1.20;;;19.70;81.10;;;;;;5045731;28;20068;-83
2022/05/22 08:25:20;;;;;;;9.20;1.63;;;19.70;80.80;;;;;;5045551;28;20029;-83
2022/05/22 08:27:45;;;;;;;5.25;1.30;;;19.80;80.80;;;;;;5042993;28;20037;-84
2022/05/22 08:30:14;;;;;;;4.50;1.50;;;20.00;80.00;;;;;;5045807;28;20345;-83
2022/05/22 08:32:42;;;;;;;4.80;1.38;;;20.10;81.20;;;;;;5041264;28;20479;-83
2022/05/22 08:35:10;;;;;;;4.95;1.20;;;20.10;80.60;;;;;;5045891;28;20469;-82
2022/05/22 08:37:36;;;;;;;4.80;1.20;;;20.10;80.90;;;;;;5044019;28;20058;-83
2022/05/22 08:40:04;;;;;;;4.63;1.30;;;20.20;78.90;;;;;;5045269;28;20025;-82
2022/05/22 08:42:43;;;;;;;5.45;1.10;;;20.20;79.00;;;;;;5043262;28;20032;-83
2022/05/22 08:45:20;;;;;;;2.42;1.05;;;20.20;79.50;;;;;;5042195;28;20022;-83
2022/05/22 08:48:09;;;;;;;6.68;1.10;;;20.30;78.60;;;;;;5049699;28;20439;-84
2022/05/22 08:50:36;;;;;;;4.30;1.27;;;20.40;78.60;;;;;;5049039;28;20094;-83
2022/05/22 08:53:25;;;;;;;6.68;1.10;;;20.50;78.10;;;;;;5050468;28;20087;-84
2022/05/22 08:58:56;;;;;;;2.67;0.88;;;20.50;79.20;;;;;;5048929;28;20044;-82
2022/05/22 09:01:32;;;;;;;6.28;0.90;;;20.40;77.10;;;;;;5033828;28;20120;-82
2022/05/22 09:04:33;;;;;;;5.38;1.10;;;20.20;77.10;;;;;;5031770;28;20463;-79
2022/05/22 09:07:14;;;;;;;3.22;0.77;;;20.00;78.90;;;;;;5048067;28;20038;-81
2022/05/22 09:09:41;;;;;;;5.53;1.08;;;20.00;78.40;;;;;;5033348;28;20467;-82
2022/05/22 09:12:36;;;;;;;4.55;1.38;;;19.90;78.50;;;;;;5032906;28;20364;-80
2022/05/22 09:15:10;;;;;;;3.65;0.77;;;19.90;77.70;;;;;;5031744;28;20026;-82
2022/05/22 09:17:43;;;;;;;6.40;1.00;;;19.80;76.80;;;;;;5033151;28;20037;-80
2022/05/22 09:20:17;;;;;;;7.85;1.45;;;19.70;78.20;;;;;;5031768;28;20762;-82
2022/05/22 09:23:10;;;;;;;5.53;1.38;;;19.70;79.40;;;;;;5031704;28;20395;-82
2022/05/22 09:25:43;;;;;;;4.60;1.52;;;19.70;78.90;;;;;;5047635;28;20095;-82
2022/05/22 09:28:23;;;;;;;;;;;19.80;77.10;;;;;;5033497;28;20025;-82
2022/05/22 09:31:07;;;;;;;2.17;0.93;;;19.80;78.10;;;;;;5031409;28;19916;-79
2022/05/22 09:33:41;;;;;;;2.33;1.00;;;19.80;77.60;;;;;;5033058;28;20075;-82
2022/05/22 09:36:23;;;;;;;3.40;1.05;;;19.90;79.70;;;;;;5031572;28;20471;-80
2022/05/22 09:39:34;;;;;;;3.22;1.40;;;20.00;76.40;;;;;;5034613;28;20029;-83
2022/05/22 09:42:27;;;;;;;3.00;1.10;;;20.30;77.80;;;;;;5041629;28;20033;-83
2022/05/22 09:45:06;;;;;;;3.22;0.70;;;20.60;77.30;;;;;;5032729;28;20559;-81
2022/05/22 09:47:41;;;;;;;1.38;0.70;;;21.10;74.60;;;;;;5031883;28;20065;-80
2022/05/22 09:50:26;;;;;;;3.33;0.82;;;21.30;74.40;;;;;;5031306;28;20033;-80
2022/05/22 09:53:07;;;;;;;5.35;1.13;;;21.40;73.80;;;;;;5030830;28;20391;-82
2022/05/22 09:55:45;;;;;;;2.17;0.80;;;21.30;74.80;;;;;;5030054;28;20037;-80
2022/05/22 09:58:43;;;;;;;7.00;1.00;;;21.10;75.20;;;;;;5032418;28;20032;-79
2022/05/22 10:01:20;;;;;;;4.30;1.25;;;21.00;75.00;;;;;;5030905;28;20399;-80
2022/05/22 10:04:05;;;;;;;4.00;1.40;;;20.80;76.70;;;;;;5032803;28;20033;-83
2022/05/22 10:06:36;;;;;;;6.10;0.80;;;20.70;78.50;;;;;;5031457;28;20042;-81
2022/05/22 10:09:29;;;;;;;3.97;1.10;;;20.90;76.80;;;;;;5030968;28;20130;-84
2022/05/22 10:12:11;;;;;;;2.15;0.60;;;21.20;75.40;;;;;;5038958;28;20030;-83
2022/05/22 10:14:55;;;;;;;1.98;0.55;;;21.30;70.90;;;;;;5031975;28;20030;-84
2022/05/22 10:17:30;;;;;;;5.10;1.05;;;21.40;72.60;;;;;;5031311;28;20041;-83
2022/05/22 10:20:10;;;;;;;2.13;0.80;;;21.50;71.20;;;;;;5032073;28;20033;-81
2022/05/22 10:23:14;;;;;;;4.88;1.25;;;21.60;73.30;;;;;;5032067;28;20029;-84
2022/05/22 10:26:07;;;;;;;3.78;1.00;;;21.80;68.10;;;;;;5031372;28;20091;-84
2022/05/22 10:28:38;;;;;;;2.75;1.00;;;21.80;69.60;;;;;;5031960;28;20030;-83
2022/05/22 10:31:16;;;;;;;5.80;1.27;;;22.10;73.30;;;;;;5031694;28;20025;-83
2022/05/22 10:34:00;;;;;;;6.47;1.00;;;22.30;70.80;;;;;;5047023;28;20041;-83
2022/05/22 10:36:34;;;;;;;5.20;1.13;;;22.20;71.50;;;;;;5030954;28;20040;-82
2022/05/22 10:39:09;;;;;;;7.85;1.33;;;22.00;69.80;;;;;;5030427;28;20040;-84
2022/05/22 10:44:49;;;;;;;3.05;1.27;;;21.80;69.20;;;;;;5031700;28;20044;-83
2022/05/22 10:47:26;;;;;;;3.28;1.02;;;22.00;70.00;;;;;;5045883;28;20034;-83
2022/05/22 10:49:51;;;;;;;1.75;0.85;;;22.10;68.70;;;;;;5031329;28;20028;-84
2022/05/22 10:52:31;;;;;;;11.88;6.30;;;22.10;70.40;;;;;;5030921;28;20029;-84
2022/05/22 10:54:57;;;;;;;4.90;2.33;;;22.20;70.30;;;;;;5031122;28;20033;-84
2022/05/22 10:57:25;;;;;;;2.72;1.00;;;22.30;68.50;;;;;;5030503;28;20036;-83
2022/05/22 10:59:52;;;;;;;26.40;19.50;;;22.30;68.30;;;;;;5031231;28;20025;-84
2022/05/22 11:02:28;;;;;;;2.60;1.45;;;22.50;73.80;;;;;;5030706;28;20029;-83
2022/05/22 11:04:56;;;;;;;3.90;1.25;;;22.60;70.90;;;;;;5031308;28;20115;-84
2022/05/22 11:07:51;;;;;;;4.18;0.60;;;22.70;67.80;;;;;;5028098;28;20048;-83
2022/05/22 11:10:28;;;;;;;2.83;0.80;;;22.90;67.80;;;;;;5031049;28;20036;-84
2022/05/22 11:13:06;;;;;;;33.75;21.45;;;22.90;67.10;;;;;;5029491;28;20738;-84
2022/05/22 11:15:34;;;;;;;13.85;5.65;;;23.20;72.30;;;;;;5030486;28;20029;-84
2022/05/22 11:18:18;;;;;;;16.27;11.15;;;23.70;74.50;;;;;;5030903;28;20033;-85
2022/05/22 11:21:27;;;;;;;2.60;1.13;;;24.10;68.00;;;;;;5029246;28;20700;-84
2022/05/22 11:24:13;;;;;;;1.33;0.60;;;24.50;71.30;;;;;;5035901;28;20038;-84
2022/05/22 11:26:58;;;;;;;3.30;0.90;;;24.80;64.90;;;;;;5028643;28;20064;-84
2022/05/22 11:29:53;;;;;;;2.83;1.33;;;24.50;65.30;;;;;;5030890;28;20027;-84
2022/05/22 11:32:39;;;;;;;3.80;1.10;;;24.40;64.60;;;;;;5030216;28;20034;-86
2022/05/22 11:35:37;;;;;;;3.50;1.10;;;24.50;66.50;;;;;;5029096;28;20670;-84
2022/05/22 11:38:24;;;;;;;4.45;1.00;;;24.50;62.00;;;;;;5029335;28;20033;-85
2022/05/22 11:41:01;;;;;;;3.42;1.00;;;24.20;63.80;;;;;;5030306;28;20108;-83
2022/05/22 11:43:52;;;;;;;3.38;1.08;;;24.10;64.40;;;;;;5030366;28;20088;-83
2022/05/22 11:46:44;;;;;;;5.78;1.00;;;23.80;66.40;;;;;;5028061;28;20474;-85
2022/05/22 11:49:48;;;;;;;3.05;1.30;;;23.80;65.80;;;;;;5030587;28;20037;-82
2022/05/22 11:55:15;;;;;;;3.60;1.42;;;23.90;65.60;;;;;;5030470;28;20080;-82
2022/05/22 11:58:12;;;;;;;3.92;1.35;;;23.90;63.70;;;;;;5041647;28;20037;-83
2022/05/22 12:00:56;;;;;;;2.67;0.90;;;23.80;63.40;;;;;;5059750;28;20394;-78
2022/05/22 12:03:47;;;;;;;4.78;1.80;;;23.50;64.30;;;;;;5047748;28;20021;-77
2022/05/22 12:06:44;;;;;;;1.90;1.23;;;23.40;63.80;;;;;;5046862;28;20028;-77
2022/05/22 12:09:46;;;;;;;3.88;1.55;;;23.20;64.70;;;;;;5047603;28;20036;-77
2022/05/22 12:12:26;;;;;;;2.40;1.10;;;23.20;64.80;;;;;;5039885;28;20034;-76
2022/05/22 12:15:13;;;;;;;3.80;0.98;;;23.20;66.10;;;;;;5046553;28;20029;-77
2022/05/22 12:18:03;;;;;;;2.15;1.08;;;23.40;65.30;;;;;;5046251;28;20048;-77
2022/05/22 12:20:42;;;;;;;2.28;1.10;;;23.50;66.80;;;;;;5052503;28;20036;-77
2022/05/22 12:23:19;;;;;;;4.45;0.98;;;23.60;65.10;;;;;;5041831;28;20032;-77
2022/05/22 12:25:55;;;;;;;3.30;1.30;;;23.80;65.90;;;;;;5052951;28;20053;-77
2022/05/22 12:28:43;;;;;;;4.28;1.00;;;24.10;66.70;;;;;;5049327;28;20097;-77
2022/05/22 12:31:15;;;;;;;2.88;0.80;;;24.50;64.90;;;;;;5043410;28;20435;-76
2022/05/22 12:33:41;;;;;;;;;;;24.90;67.00;;;;;;5053325;28;20021;-75
2022/05/22 12:36:10;;;;;;;1.45;0.55;;;25.10;61.90;;;;;;5050743;28;19926;-77
2022/05/22 12:38:44;;;;;;;2.88;0.98;;;25.10;63.50;;;;;;5047562;28;20029;-79
2022/05/22 12:41:22;;;;;;;4.50;1.00;;;25.40;62.40;;;;;;5045029;28;20025;-76
2022/05/22 12:43:50;;;;;;;3.63;1.23;;;25.70;58.20;;;;;;5050467;28;20033;-77
2022/05/22 12:46:18;;;;;;;3.65;1.17;;;25.70;58.80;;;;;;5051698;28;20043;-77
2022/05/22 12:48:43;;;;;;;5.45;0.75;;;25.60;60.70;;;;;;5045840;28;20021;-76
2022/05/22 12:51:14;;;;;;;2.63;0.93;;;25.60;62.70;;;;;;5045883;28;20039;-76
2022/05/22 12:53:43;;;;;;;1.48;0.63;;;25.70;63.90;;;;;;5046006;28;20029;-77
2022/05/22 12:56:29;;;;;;;3.90;1.05;;;25.90;60.00;;;;;;5048977;28;20638;-77
2022/05/22 12:59:19;;;;;;;3.22;0.82;;;26.10;59.20;;;;;;5043114;28;20498;-78
2022/05/22 13:01:46;;;;;;;4.13;0.60;;;26.40;61.50;;;;;;5042313;28;20086;-75
2022/05/22 13:04:15;;;;;;;4.80;0.90;;;26.50;58.90;;;;;;5048678;28;20104;-74
2022/05/22 13:06:50;;;;;;;2.28;0.63;;;26.50;59.90;;;;;;5051129;28;20059;-77
2022/05/22 13:09:31;;;;;;;2.65;0.65;;;26.50;59.20;;;;;;5047221;28;20103;-79
2022/05/22 13:12:00;;;;;;;3.83;1.10;;;26.30;57.90;;;;;;5051210;28;20044;-78
2022/05/22 13:14:29;;;;;;;4.40;0.90;;;25.90;58.40;;;;;;5047886;28;20498;-79
2022/05/22 13:16:55;;;;;;;2.63;0.70;;;25.70;59.60;;;;;;5051000;28;20043;-82